sensor_id;sensor_type;location;lat;lon;timestamp;P1;durP1;ratioP1;P2;durP2;ratioP2
49123;SDS011;48506;48.202;16.274;2022-09-27T00:00:07;6.13;;;3.63;;
49123;SDS011;48506;48.202;16.274;2022-09-27T00:02:34;5.75;;;3.20;;
49123;SDS011;48506;48.202;16.274;2022-09-27T00:05:00;4.60;;;3.13;;
49123;SDS011;48506;48.202;16.274;2022-09-27T00:07:26;6.32;;;3.10;;
49123;SDS011;48506;48.202;16.274;2022-09-27T00:09:51;4.57;;;2.95;;
49123;SDS011;48506;48.202;16.274;2022-09-27T00:12:17;4.72;;;3.20;;
49123;SDS011;48506;48.202;16.274;2022-09-27T00:14:43;4.65;;;3.20;;
49123;SDS011;48506;48.202;16.274;2022-09-27T00:17:09;5.60;;;2.78;;
49123;SDS011;48506;48.202;16.274;2022-09-27T00:19:35;4.18;;;2.85;;
49123;SDS011;48506;48.202;16.274;2022-09-27T00:22:01;6.60;;;3.20;;
49123;SDS011;48506;48.202;16.274;2022-09-27T00:24:27;5.00;;;3.45;;
49123;SDS011;48506;48.202;16.274;2022-09-27T00:26:53;3.85;;;2.80;;
49123;SDS011;48506;48.202;16.274;2022-09-27T00:29:19;4.18;;;2.60;;
49123;SDS011;48506;48.202;16.274;2022-09-27T00:31:45;3.30;;;2.53;;
49123;SDS011;48506;48.202;16.274;2022-09-27T00:34:22;2.92;;;2.30;;
49123;SDS011;48506;48.202;16.274;2022-09-27T00:36:50;4.05;;;2.70;;
49123;SDS011;48506;48.202;16.274;2022-09-27T00:39:17;4.00;;;2.38;;
49123;SDS011;48506;48.202;16.274;2022-09-27T00:41:43;2.55;;;2.30;;
49123;SDS011;48506;48.202;16.274;2022-09-27T00:52:47;3.58;;;2.70;;
49123;SDS011;48506;48.202;16.274;2022-09-27T00:55:25;4.57;;;2.95;;
49123;SDS011;48506;48.202;16.274;2022-09-27T00:57:59;3.97;;;2.47;;
49123;SDS011;48506;48.202;16.274;2022-09-27T01:00:26;5.28;;;2.10;;
49123;SDS011;48506;48.202;16.274;2022-09-27T01:02:52;4.97;;;2.70;;
49123;SDS011;48506;48.202;16.274;2022-09-27T01:05:21;3.83;;;2.40;;
49123;SDS011;48506;48.202;16.274;2022-09-27T01:07:49;1.90;;;1.63;;
49123;SDS011;48506;48.202;16.274;2022-09-27T01:10:15;4.75;;;2.97;;
49123;SDS011;48506;48.202;16.274;2022-09-27T01:18:27;5.65;;;3.65;;
49123;SDS011;48506;48.202;16.274;2022-09-27T01:24:07;4.65;;;3.10;;
49123;SDS011;48506;48.202;16.274;2022-09-27T01:33:12;3.72;;;2.53;;
49123;SDS011;48506;48.202;16.274;2022-09-27T01:39:09;4.20;;;2.33;;
49123;SDS011;48506;48.202;16.274;2022-09-27T01:41:42;3.42;;;2.30;;
49123;SDS011;48506;48.202;16.274;2022-09-27T01:44:36;3.78;;;2.40;;
49123;SDS011;48506;48.202;16.274;2022-09-27T01:47:04;5.97;;;2.30;;
49123;SDS011;48506;48.202;16.274;2022-09-27T01:52:42;3.75;;;2.33;;
49123;SDS011;48506;48.202;16.274;2022-09-27T01:55:17;3.42;;;2.10;;
49123;SDS011;48506;48.202;16.274;2022-09-27T01:57:59;4.53;;;2.50;;
49123;SDS011;48506;48.202;16.274;2022-09-27T02:00:44;3.05;;;2.05;;
49123;SDS011;48506;48.202;16.274;2022-09-27T02:03:15;4.32;;;2.22;;
49123;SDS011;48506;48.202;16.274;2022-09-27T02:05:55;2.90;;;2.25;;
49123;SDS011;48506;48.202;16.274;2022-09-27T02:11:38;3.90;;;2.20;;
49123;SDS011;48506;48.202;16.274;2022-09-27T02:14:10;2.72;;;2.00;;
49123;SDS011;48506;48.202;16.274;2022-09-27T02:16:49;3.72;;;2.70;;
49123;SDS011;48506;48.202;16.274;2022-09-27T02:24:36;4.97;;;2.85;;
49123;SDS011;48506;48.202;16.274;2022-09-27T02:27:11;4.60;;;2.65;;
49123;SDS011;48506;48.202;16.274;2022-09-27T02:30:26;3.55;;;2.33;;
49123;SDS011;48506;48.202;16.274;2022-09-27T02:32:36;4.53;;;2.97;;
49123;SDS011;48506;48.202;16.274;2022-09-27T02:35:04;4.47;;;2.60;;
49123;SDS011;48506;48.202;16.274;2022-09-27T02:37:54;5.50;;;2.85;;
49123;SDS011;48506;48.202;16.274;2022-09-27T02:40:20;3.83;;;2.22;;
49123;SDS011;48506;48.202;16.274;2022-09-27T02:42:47;4.05;;;2.42;;
49123;SDS011;48506;48.202;16.274;2022-09-27T02:45:13;3.70;;;2.47;;
49123;SDS011;48506;48.202;16.274;2022-09-27T02:47:56;2.92;;;2.45;;
49123;SDS011;48506;48.202;16.274;2022-09-27T02:53:14;3.08;;;2.42;;
49123;SDS011;48506;48.202;16.274;2022-09-27T02:58:56;3.00;;;2.20;;
49123;SDS011;48506;48.202;16.274;2022-09-27T03:04:22;4.32;;;2.80;;
49123;SDS011;48506;48.202;16.274;2022-09-27T03:06:59;3.55;;;2.45;;
49123;SDS011;48506;48.202;16.274;2022-09-27T03:09:29;3.78;;;2.30;;
49123;SDS011;48506;48.202;16.274;2022-09-27T03:12:06;5.38;;;3.00;;
49123;SDS011;48506;48.202;16.274;2022-09-27T03:14:32;4.82;;;2.55;;
49123;SDS011;48506;48.202;16.274;2022-09-27T03:16:58;4.47;;;2.40;;
49123;SDS011;48506;48.202;16.274;2022-09-27T03:19:24;2.85;;;2.05;;
49123;SDS011;48506;48.202;16.274;2022-09-27T03:21:50;6.25;;;2.38;;
49123;SDS011;48506;48.202;16.274;2022-09-27T03:24:16;2.53;;;2.22;;
49123;SDS011;48506;48.202;16.274;2022-09-27T03:26:42;4.10;;;2.60;;
49123;SDS011;48506;48.202;16.274;2022-09-27T03:29:08;4.65;;;2.72;;
49123;SDS011;48506;48.202;16.274;2022-09-27T03:31:33;3.22;;;2.20;;
49123;SDS011;48506;48.202;16.274;2022-09-27T03:33:59;4.20;;;2.80;;
49123;SDS011;48506;48.202;16.274;2022-09-27T03:36:25;3.80;;;2.53;;
49123;SDS011;48506;48.202;16.274;2022-09-27T03:38:51;5.15;;;2.33;;
49123;SDS011;48506;48.202;16.274;2022-09-27T03:41:17;6.93;;;2.63;;
49123;SDS011;48506;48.202;16.274;2022-09-27T03:43:43;4.63;;;2.90;;
49123;SDS011;48506;48.202;16.274;2022-09-27T03:46:09;4.57;;;2.85;;
49123;SDS011;48506;48.202;16.274;2022-09-27T03:48:35;5.93;;;2.60;;
49123;SDS011;48506;48.202;16.274;2022-09-27T03:51:01;4.57;;;2.53;;
49123;SDS011;48506;48.202;16.274;2022-09-27T03:53:28;3.58;;;2.38;;
49123;SDS011;48506;48.202;16.274;2022-09-27T03:55:54;2.72;;;2.45;;
49123;SDS011;48506;48.202;16.274;2022-09-27T03:58:21;3.33;;;2.40;;
49123;SDS011;48506;48.202;16.274;2022-09-27T04:00:47;4.40;;;2.53;;
49123;SDS011;48506;48.202;16.274;2022-09-27T04:03:13;4.13;;;2.70;;
49123;SDS011;48506;48.202;16.274;2022-09-27T04:05:39;2.78;;;2.30;;
49123;SDS011;48506;48.202;16.274;2022-09-27T04:08:05;4.75;;;3.05;;
49123;SDS011;48506;48.202;16.274;2022-09-27T04:10:32;3.35;;;2.25;;
49123;SDS011;48506;48.202;16.274;2022-09-27T04:12:58;5.00;;;3.22;;
49123;SDS011;48506;48.202;16.274;2022-09-27T04:15:24;6.05;;;2.83;;
49123;SDS011;48506;48.202;16.274;2022-09-27T04:17:50;2.72;;;2.22;;
49123;SDS011;48506;48.202;16.274;2022-09-27T04:20:16;4.43;;;2.95;;
49123;SDS011;48506;48.202;16.274;2022-09-27T04:22:43;3.35;;;2.63;;
49123;SDS011;48506;48.202;16.274;2022-09-27T04:25:10;3.80;;;2.42;;
49123;SDS011;48506;48.202;16.274;2022-09-27T04:27:37;5.20;;;3.05;;
49123;SDS011;48506;48.202;16.274;2022-09-27T04:30:06;3.70;;;2.58;;
49123;SDS011;48506;48.202;16.274;2022-09-27T04:32:33;3.28;;;2.33;;
49123;SDS011;48506;48.202;16.274;2022-09-27T04:34:58;3.17;;;2.20;;
49123;SDS011;48506;48.202;16.274;2022-09-27T04:37:43;3.58;;;2.33;;
49123;SDS011;48506;48.202;16.274;2022-09-27T04:40:10;4.30;;;2.95;;
49123;SDS011;48506;48.202;16.274;2022-09-27T04:42:36;4.28;;;2.50;;
49123;SDS011;48506;48.202;16.274;2022-09-27T04:45:03;3.00;;;2.20;;
49123;SDS011;48506;48.202;16.274;2022-09-27T04:47:29;3.53;;;2.25;;
49123;SDS011;48506;48.202;16.274;2022-09-27T04:49:55;3.63;;;2.45;;
49123;SDS011;48506;48.202;16.274;2022-09-27T04:52:21;3.05;;;2.20;;
49123;SDS011;48506;48.202;16.274;2022-09-27T04:54:46;4.85;;;2.92;;
49123;SDS011;48506;48.202;16.274;2022-09-27T04:57:14;5.65;;;3.30;;
49123;SDS011;48506;48.202;16.274;2022-09-27T04:59:41;6.18;;;3.38;;
49123;SDS011;48506;48.202;16.274;2022-09-27T05:02:07;5.38;;;3.13;;
49123;SDS011;48506;48.202;16.274;2022-09-27T05:04:34;3.33;;;2.65;;
49123;SDS011;48506;48.202;16.274;2022-09-27T05:07:00;3.28;;;2.50;;
49123;SDS011;48506;48.202;16.274;2022-09-27T05:09:26;3.03;;;2.22;;
49123;SDS011;48506;48.202;16.274;2022-09-27T05:11:53;3.97;;;2.72;;
49123;SDS011;48506;48.202;16.274;2022-09-27T05:14:20;5.57;;;2.83;;
49123;SDS011;48506;48.202;16.274;2022-09-27T05:16:46;7.00;;;2.90;;
49123;SDS011;48506;48.202;16.274;2022-09-27T05:19:12;5.40;;;3.40;;
49123;SDS011;48506;48.202;16.274;2022-09-27T05:21:38;4.18;;;2.45;;
49123;SDS011;48506;48.202;16.274;2022-09-27T05:24:05;3.95;;;2.47;;
49123;SDS011;48506;48.202;16.274;2022-09-27T05:26:32;3.78;;;2.67;;
49123;SDS011;48506;48.202;16.274;2022-09-27T05:28:57;5.05;;;2.95;;
49123;SDS011;48506;48.202;16.274;2022-09-27T05:31:24;5.40;;;2.53;;
49123;SDS011;48506;48.202;16.274;2022-09-27T05:33:51;3.72;;;2.88;;
49123;SDS011;48506;48.202;16.274;2022-09-27T05:36:18;5.35;;;2.90;;
49123;SDS011;48506;48.202;16.274;2022-09-27T05:38:46;4.10;;;2.90;;
49123;SDS011;48506;48.202;16.274;2022-09-27T05:41:13;3.90;;;2.75;;
49123;SDS011;48506;48.202;16.274;2022-09-27T05:43:40;4.35;;;3.92;;
49123;SDS011;48506;48.202;16.274;2022-09-27T05:46:06;7.63;;;4.85;;
49123;SDS011;48506;48.202;16.274;2022-09-27T05:48:33;6.95;;;4.43;;
49123;SDS011;48506;48.202;16.274;2022-09-27T05:50:59;7.07;;;3.35;;
49123;SDS011;48506;48.202;16.274;2022-09-27T05:53:25;3.90;;;2.47;;
49123;SDS011;48506;48.202;16.274;2022-09-27T05:55:51;4.35;;;3.20;;
49123;SDS011;48506;48.202;16.274;2022-09-27T05:58:17;7.03;;;2.88;;
49123;SDS011;48506;48.202;16.274;2022-09-27T06:00:44;4.03;;;3.25;;
49123;SDS011;48506;48.202;16.274;2022-09-27T06:03:10;8.10;;;3.45;;
49123;SDS011;48506;48.202;16.274;2022-09-27T06:05:38;6.45;;;3.97;;
49123;SDS011;48506;48.202;16.274;2022-09-27T06:08:06;5.53;;;2.83;;
49123;SDS011;48506;48.202;16.274;2022-09-27T06:10:34;6.05;;;3.65;;
49123;SDS011;48506;48.202;16.274;2022-09-27T06:13:03;18.85;;;3.50;;
49123;SDS011;48506;48.202;16.274;2022-09-27T06:18:04;4.70;;;3.28;;
49123;SDS011;48506;48.202;16.274;2022-09-27T06:20:32;4.28;;;3.28;;
49123;SDS011;48506;48.202;16.274;2022-09-27T06:23:05;7.55;;;3.67;;
49123;SDS011;48506;48.202;16.274;2022-09-27T06:25:34;5.38;;;3.47;;
49123;SDS011;48506;48.202;16.274;2022-09-27T06:28:02;5.72;;;3.78;;
49123;SDS011;48506;48.202;16.274;2022-09-27T06:30:28;6.57;;;3.60;;
49123;SDS011;48506;48.202;16.274;2022-09-27T06:33:01;5.43;;;3.88;;
49123;SDS011;48506;48.202;16.274;2022-09-27T06:35:29;7.18;;;3.80;;
49123;SDS011;48506;48.202;16.274;2022-09-27T06:37:55;5.28;;;4.10;;
49123;SDS011;48506;48.202;16.274;2022-09-27T06:40:22;5.90;;;3.80;;
49123;SDS011;48506;48.202;16.274;2022-09-27T06:42:50;5.53;;;3.47;;
49123;SDS011;48506;48.202;16.274;2022-09-27T06:45:18;6.07;;;3.95;;
49123;SDS011;48506;48.202;16.274;2022-09-27T06:47:44;6.43;;;3.83;;
49123;SDS011;48506;48.202;16.274;2022-09-27T06:50:12;6.38;;;3.80;;
49123;SDS011;48506;48.202;16.274;2022-09-27T06:52:45;3.58;;;2.95;;
49123;SDS011;48506;48.202;16.274;2022-09-27T06:55:13;10.88;;;3.97;;
49123;SDS011;48506;48.202;16.274;2022-09-27T06:57:40;6.28;;;3.70;;
49123;SDS011;48506;48.202;16.274;2022-09-27T07:00:26;11.05;;;4.10;;
49123;SDS011;48506;48.202;16.274;2022-09-27T07:02:53;5.90;;;3.92;;
49123;SDS011;48506;48.202;16.274;2022-09-27T07:05:27;9.00;;;3.72;;
49123;SDS011;48506;48.202;16.274;2022-09-27T07:07:56;6.60;;;3.60;;
49123;SDS011;48506;48.202;16.274;2022-09-27T07:10:27;9.50;;;4.93;;
49123;SDS011;48506;48.202;16.274;2022-09-27T07:12:55;3.55;;;3.13;;
49123;SDS011;48506;48.202;16.274;2022-09-27T07:15:22;5.80;;;4.18;;
49123;SDS011;48506;48.202;16.274;2022-09-27T07:17:55;5.72;;;3.60;;
49123;SDS011;48506;48.202;16.274;2022-09-27T07:20:25;6.18;;;3.90;;
49123;SDS011;48506;48.202;16.274;2022-09-27T07:22:51;6.55;;;3.53;;
49123;SDS011;48506;48.202;16.274;2022-09-27T07:25:19;11.05;;;4.80;;
49123;SDS011;48506;48.202;16.274;2022-09-27T07:27:46;9.38;;;6.00;;
49123;SDS011;48506;48.202;16.274;2022-09-27T07:30:13;7.18;;;4.45;;
49123;SDS011;48506;48.202;16.274;2022-09-27T07:32:41;6.88;;;3.80;;
49123;SDS011;48506;48.202;16.274;2022-09-27T07:35:08;8.02;;;5.22;;
49123;SDS011;48506;48.202;16.274;2022-09-27T07:37:35;10.18;;;4.93;;
49123;SDS011;48506;48.202;16.274;2022-09-27T07:40:04;6.22;;;3.63;;
49123;SDS011;48506;48.202;16.274;2022-09-27T07:42:32;6.53;;;4.05;;
49123;SDS011;48506;48.202;16.274;2022-09-27T07:45:06;6.05;;;3.95;;
49123;SDS011;48506;48.202;16.274;2022-09-27T07:47:34;6.60;;;3.08;;
49123;SDS011;48506;48.202;16.274;2022-09-27T07:50:03;4.95;;;3.55;;
49123;SDS011;48506;48.202;16.274;2022-09-27T07:52:38;10.02;;;3.88;;
49123;SDS011;48506;48.202;16.274;2022-09-27T07:55:09;5.07;;;3.17;;
49123;SDS011;48506;48.202;16.274;2022-09-27T07:57:37;6.55;;;3.63;;
49123;SDS011;48506;48.202;16.274;2022-09-27T08:00:05;7.78;;;4.45;;
49123;SDS011;48506;48.202;16.274;2022-09-27T08:02:34;4.93;;;3.55;;
49123;SDS011;48506;48.202;16.274;2022-09-27T08:05:00;5.63;;;3.65;;
49123;SDS011;48506;48.202;16.274;2022-09-27T08:07:27;5.50;;;3.92;;
49123;SDS011;48506;48.202;16.274;2022-09-27T08:09:55;6.57;;;3.30;;
49123;SDS011;48506;48.202;16.274;2022-09-27T08:12:22;8.30;;;5.15;;
49123;SDS011;48506;48.202;16.274;2022-09-27T08:14:50;4.85;;;3.28;;
49123;SDS011;48506;48.202;16.274;2022-09-27T08:17:17;8.65;;;4.15;;
49123;SDS011;48506;48.202;16.274;2022-09-27T08:19:45;6.57;;;3.88;;
49123;SDS011;48506;48.202;16.274;2022-09-27T08:24:40;9.63;;;4.55;;
49123;SDS011;48506;48.202;16.274;2022-09-27T08:27:07;4.53;;;3.30;;
49123;SDS011;48506;48.202;16.274;2022-09-27T08:29:34;5.63;;;3.65;;
49123;SDS011;48506;48.202;16.274;2022-09-27T08:32:01;5.35;;;3.55;;
49123;SDS011;48506;48.202;16.274;2022-09-27T08:34:27;4.63;;;3.33;;
49123;SDS011;48506;48.202;16.274;2022-09-27T08:36:54;3.33;;;2.88;;
49123;SDS011;48506;48.202;16.274;2022-09-27T08:39:21;4.15;;;2.92;;
49123;SDS011;48506;48.202;16.274;2022-09-27T08:41:54;3.95;;;3.10;;
49123;SDS011;48506;48.202;16.274;2022-09-27T08:49:40;5.15;;;3.88;;
49123;SDS011;48506;48.202;16.274;2022-09-27T08:52:21;5.85;;;4.05;;
49123;SDS011;48506;48.202;16.274;2022-09-27T09:00:53;5.07;;;3.90;;
49123;SDS011;48506;48.202;16.274;2022-09-27T09:03:26;3.97;;;3.10;;
49123;SDS011;48506;48.202;16.274;2022-09-27T09:14:45;2.97;;;2.50;;
49123;SDS011;48506;48.202;16.274;2022-09-27T09:23:17;2.42;;;2.13;;
49123;SDS011;48506;48.202;16.274;2022-09-27T09:26:06;2.42;;;1.85;;
49123;SDS011;48506;48.202;16.274;2022-09-27T09:35:19;3.88;;;1.98;;
49123;SDS011;48506;48.202;16.274;2022-09-27T09:37:30;3.88;;;2.85;;
49123;SDS011;48506;48.202;16.274;2022-09-27T09:40:26;3.25;;;2.47;;
49123;SDS011;48506;48.202;16.274;2022-09-27T09:43:14;6.32;;;2.47;;
49123;SDS011;48506;48.202;16.274;2022-09-27T09:45:45;3.20;;;2.42;;
49123;SDS011;48506;48.202;16.274;2022-09-27T09:48:23;4.50;;;3.15;;
49123;SDS011;48506;48.202;16.274;2022-09-27T09:51:21;4.45;;;2.88;;
49123;SDS011;48506;48.202;16.274;2022-09-27T09:53:53;3.83;;;2.42;;
49123;SDS011;48506;48.202;16.274;2022-09-27T09:56:27;4.20;;;3.00;;
49123;SDS011;48506;48.202;16.274;2022-09-27T09:59:01;4.47;;;3.05;;
49123;SDS011;48506;48.202;16.274;2022-09-27T10:01:40;3.85;;;2.85;;
49123;SDS011;48506;48.202;16.274;2022-09-27T10:04:19;4.55;;;2.80;;
49123;SDS011;48506;48.202;16.274;2022-09-27T10:06:48;4.75;;;3.28;;
49123;SDS011;48506;48.202;16.274;2022-09-27T10:09:16;2.25;;;2.03;;
49123;SDS011;48506;48.202;16.274;2022-09-27T10:11:47;5.15;;;2.88;;
49123;SDS011;48506;48.202;16.274;2022-09-27T10:14:15;3.95;;;2.50;;
49123;SDS011;48506;48.202;16.274;2022-09-27T10:16:45;4.25;;;2.20;;
49123;SDS011;48506;48.202;16.274;2022-09-27T10:19:18;2.67;;;1.90;;
49123;SDS011;48506;48.202;16.274;2022-09-27T10:21:57;4.10;;;1.67;;
49123;SDS011;48506;48.202;16.274;2022-09-27T10:24:53;2.40;;;1.75;;
49123;SDS011;48506;48.202;16.274;2022-09-27T10:27:24;2.50;;;1.83;;
49123;SDS011;48506;48.202;16.274;2022-09-27T10:29:57;3.35;;;1.60;;
49123;SDS011;48506;48.202;16.274;2022-09-27T10:32:33;1.98;;;1.63;;
49123;SDS011;48506;48.202;16.274;2022-09-27T10:40:47;1.70;;;1.23;;
49123;SDS011;48506;48.202;16.274;2022-09-27T10:43:29;2.72;;;1.70;;
49123;SDS011;48506;48.202;16.274;2022-09-27T10:46:05;1.33;;;1.02;;
49123;SDS011;48506;48.202;16.274;2022-09-27T10:48:37;1.65;;;1.15;;
49123;SDS011;48506;48.202;16.274;2022-09-27T10:51:07;1.90;;;1.52;;
49123;SDS011;48506;48.202;16.274;2022-09-27T10:53:54;1.63;;;1.10;;
49123;SDS011;48506;48.202;16.274;2022-09-27T10:56:36;5.70;;;0.93;;
49123;SDS011;48506;48.202;16.274;2022-09-27T10:59:03;1.20;;;0.82;;
49123;SDS011;48506;48.202;16.274;2022-09-27T11:01:47;1.42;;;1.00;;
49123;SDS011;48506;48.202;16.274;2022-09-27T11:04:19;1.23;;;1.02;;
49123;SDS011;48506;48.202;16.274;2022-09-27T11:06:50;1.55;;;1.20;;
49123;SDS011;48506;48.202;16.274;2022-09-27T11:09:18;2.45;;;1.20;;
49123;SDS011;48506;48.202;16.274;2022-09-27T11:11:49;1.98;;;1.05;;
49123;SDS011;48506;48.202;16.274;2022-09-27T11:14:17;1.75;;;1.15;;
49123;SDS011;48506;48.202;16.274;2022-09-27T11:53:57;2.20;;;1.10;;
49123;SDS011;48506;48.202;16.274;2022-09-27T12:04:37;1.20;;;1.10;;
49123;SDS011;48506;48.202;16.274;2022-09-27T12:07:25;2.58;;;1.20;;
49123;SDS011;48506;48.202;16.274;2022-09-27T12:09:59;1.38;;;0.93;;
49123;SDS011;48506;48.202;16.274;2022-09-27T12:12:38;1.17;;;0.90;;
49123;SDS011;48506;48.202;16.274;2022-09-27T12:15:16;1.20;;;0.75;;
49123;SDS011;48506;48.202;16.274;2022-09-27T12:17:46;1.42;;;0.77;;
49123;SDS011;48506;48.202;16.274;2022-09-27T12:20:17;2.22;;;1.38;;
49123;SDS011;48506;48.202;16.274;2022-09-27T12:23:51;1.67;;;0.95;;
49123;SDS011;48506;48.202;16.274;2022-09-27T12:25:56;1.52;;;1.13;;
49123;SDS011;48506;48.202;16.274;2022-09-27T12:28:39;2.88;;;0.75;;
49123;SDS011;48506;48.202;16.274;2022-09-27T12:36:24;1.77;;;0.85;;
49123;SDS011;48506;48.202;16.274;2022-09-27T12:38:59;1.58;;;1.02;;
49123;SDS011;48506;48.202;16.274;2022-09-27T12:41:35;1.33;;;0.80;;
49123;SDS011;48506;48.202;16.274;2022-09-27T12:44:07;0.93;;;0.57;;
49123;SDS011;48506;48.202;16.274;2022-09-27T12:52:50;1.55;;;1.00;;
49123;SDS011;48506;48.202;16.274;2022-09-27T12:55:35;1.50;;;1.08;;
49123;SDS011;48506;48.202;16.274;2022-09-27T13:04:12;1.50;;;1.27;;
49123;SDS011;48506;48.202;16.274;2022-09-27T13:12:24;1.67;;;0.73;;
49123;SDS011;48506;48.202;16.274;2022-09-27T13:15:00;0.82;;;0.63;;
49123;SDS011;48506;48.202;16.274;2022-09-27T13:22:55;1.63;;;1.00;;
49123;SDS011;48506;48.202;16.274;2022-09-27T13:31:02;0.73;;;0.70;;
49123;SDS011;48506;48.202;16.274;2022-09-27T13:33:40;1.05;;;0.85;;
49123;SDS011;48506;48.202;16.274;2022-09-27T13:44:28;1.77;;;1.08;;
49123;SDS011;48506;48.202;16.274;2022-09-27T13:47:19;1.85;;;0.90;;
49123;SDS011;48506;48.202;16.274;2022-09-27T13:50:03;1.80;;;1.00;;
49123;SDS011;48506;48.202;16.274;2022-09-27T13:52:41;2.70;;;0.90;;
49123;SDS011;48506;48.202;16.274;2022-09-27T13:58:02;0.70;;;0.60;;
49123;SDS011;48506;48.202;16.274;2022-09-27T14:00:38;0.60;;;0.60;;
49123;SDS011;48506;48.202;16.274;2022-09-27T14:03:22;0.95;;;0.60;;
49123;SDS011;48506;48.202;16.274;2022-09-27T14:06:02;0.40;;;0.40;;
49123;SDS011;48506;48.202;16.274;2022-09-27T14:08:33;0.60;;;0.47;;
49123;SDS011;48506;48.202;16.274;2022-09-27T14:11:03;1.13;;;0.32;;
49123;SDS011;48506;48.202;16.274;2022-09-27T14:13:36;0.65;;;0.45;;
49123;SDS011;48506;48.202;16.274;2022-09-27T14:16:04;0.65;;;0.32;;
49123;SDS011;48506;48.202;16.274;2022-09-27T14:18:34;0.75;;;0.45;;
49123;SDS011;48506;48.202;16.274;2022-09-27T14:21:28;0.65;;;0.60;;
49123;SDS011;48506;48.202;16.274;2022-09-27T14:26:43;0.10;;;0.10;;
49123;SDS011;48506;48.202;16.274;2022-09-27T14:29:17;2.92;;;0.40;;
49123;SDS011;48506;48.202;16.274;2022-09-27T14:31:44;0.30;;;0.20;;
49123;SDS011;48506;48.202;16.274;2022-09-27T14:34:14;0.50;;;0.32;;
49123;SDS011;48506;48.202;16.274;2022-09-27T14:36:42;0.22;;;0.20;;
49123;SDS011;48506;48.202;16.274;2022-09-27T14:39:31;0.40;;;0.32;;
49123;SDS011;48506;48.202;16.274;2022-09-27T14:42:02;0.22;;;0.22;;
49123;SDS011;48506;48.202;16.274;2022-09-27T14:44:42;0.35;;;0.30;;
49123;SDS011;48506;48.202;16.274;2022-09-27T14:47:16;3.47;;;0.57;;
49123;SDS011;48506;48.202;16.274;2022-09-27T14:49:47;0.80;;;0.35;;
49123;SDS011;48506;48.202;16.274;2022-09-27T14:52:21;0.55;;;0.20;;
49123;SDS011;48506;48.202;16.274;2022-09-27T14:55:00;0.68;;;0.20;;
49123;SDS011;48506;48.202;16.274;2022-09-27T14:57:31;0.17;;;0.10;;
49123;SDS011;48506;48.202;16.274;2022-09-27T15:00:13;0.40;;;0.30;;
49123;SDS011;48506;48.202;16.274;2022-09-27T15:02:42;1.60;;;0.38;;
49123;SDS011;48506;48.202;16.274;2022-09-27T15:05:18;0.70;;;0.60;;
49123;SDS011;48506;48.202;16.274;2022-09-27T15:07:47;0.28;;;0.17;;
49123;SDS011;48506;48.202;16.274;2022-09-27T15:10:19;0.20;;;0.20;;
49123;SDS011;48506;48.202;16.274;2022-09-27T15:12:48;0.35;;;0.22;;
49123;SDS011;48506;48.202;16.274;2022-09-27T15:15:21;0.88;;;0.38;;
49123;SDS011;48506;48.202;16.274;2022-09-27T15:17:50;0.55;;;0.30;;
49123;SDS011;48506;48.202;16.274;2022-09-27T15:20:25;1.17;;;0.40;;
49123;SDS011;48506;48.202;16.274;2022-09-27T15:22:53;0.75;;;0.30;;
49123;SDS011;48506;48.202;16.274;2022-09-27T15:28:00;1.20;;;0.47;;
49123;SDS011;48506;48.202;16.274;2022-09-27T15:33:00;0.32;;;0.20;;
49123;SDS011;48506;48.202;16.274;2022-09-27T15:35:29;1.33;;;0.50;;
49123;SDS011;48506;48.202;16.274;2022-09-27T15:41:02;1.17;;;0.68;;
49123;SDS011;48506;48.202;16.274;2022-09-27T15:43:41;0.40;;;0.40;;
49123;SDS011;48506;48.202;16.274;2022-09-27T15:46:55;1.35;;;0.82;;
49123;SDS011;48506;48.202;16.274;2022-09-27T15:49:16;4.38;;;0.50;;
49123;SDS011;48506;48.202;16.274;2022-09-27T15:51:57;0.20;;;0.20;;
49123;SDS011;48506;48.202;16.274;2022-09-27T15:54:27;0.60;;;0.37;;
49123;SDS011;48506;48.202;16.274;2022-09-27T15:56:55;0.55;;;0.50;;
49123;SDS011;48506;48.202;16.274;2022-09-27T15:59:27;0.80;;;0.40;;
49123;SDS011;48506;48.202;16.274;2022-09-27T16:01:56;0.50;;;0.50;;
49123;SDS011;48506;48.202;16.274;2022-09-27T16:04:24;0.60;;;0.45;;
49123;SDS011;48506;48.202;16.274;2022-09-27T16:06:51;1.95;;;0.40;;
49123;SDS011;48506;48.202;16.274;2022-09-27T16:09:19;0.40;;;0.38;;
49123;SDS011;48506;48.202;16.274;2022-09-27T16:11:46;1.05;;;0.50;;
49123;SDS011;48506;48.202;16.274;2022-09-27T16:14:12;0.90;;;0.52;;
49123;SDS011;48506;48.202;16.274;2022-09-27T16:16:43;4.47;;;0.47;;
49123;SDS011;48506;48.202;16.274;2022-09-27T16:19:12;0.68;;;0.68;;
49123;SDS011;48506;48.202;16.274;2022-09-27T16:21:38;0.32;;;0.32;;
49123;SDS011;48506;48.202;16.274;2022-09-27T16:24:08;0.85;;;0.40;;
49123;SDS011;48506;48.202;16.274;2022-09-27T16:26:35;0.80;;;0.50;;
49123;SDS011;48506;48.202;16.274;2022-09-27T16:29:03;0.85;;;0.40;;
49123;SDS011;48506;48.202;16.274;2022-09-27T16:31:34;0.85;;;0.65;;
49123;SDS011;48506;48.202;16.274;2022-09-27T16:34:00;0.82;;;0.40;;
49123;SDS011;48506;48.202;16.274;2022-09-27T16:36:26;2.20;;;0.45;;
49123;SDS011;48506;48.202;16.274;2022-09-27T16:38:53;1.52;;;0.63;;
49123;SDS011;48506;48.202;16.274;2022-09-27T16:41:20;1.02;;;0.55;;
49123;SDS011;48506;48.202;16.274;2022-09-27T16:43:47;1.10;;;0.32;;
49123;SDS011;48506;48.202;16.274;2022-09-27T16:46:13;2.17;;;0.60;;
49123;SDS011;48506;48.202;16.274;2022-09-27T16:48:44;0.82;;;0.40;;
49123;SDS011;48506;48.202;16.274;2022-09-27T16:51:18;1.10;;;0.80;;
49123;SDS011;48506;48.202;16.274;2022-09-27T16:54:05;0.70;;;0.60;;
49123;SDS011;48506;48.202;16.274;2022-09-27T16:56:32;2.22;;;0.70;;
49123;SDS011;48506;48.202;16.274;2022-09-27T16:59:00;1.20;;;0.63;;
49123;SDS011;48506;48.202;16.274;2022-09-27T17:01:28;0.73;;;0.50;;
49123;SDS011;48506;48.202;16.274;2022-09-27T17:03:57;1.55;;;0.63;;
49123;SDS011;48506;48.202;16.274;2022-09-27T17:06:25;1.20;;;0.52;;
49123;SDS011;48506;48.202;16.274;2022-09-27T17:08:52;0.38;;;0.38;;
49123;SDS011;48506;48.202;16.274;2022-09-27T17:11:20;0.93;;;0.40;;
49123;SDS011;48506;48.202;16.274;2022-09-27T17:13:47;0.88;;;0.47;;
49123;SDS011;48506;48.202;16.274;2022-09-27T17:16:19;2.85;;;0.65;;
49123;SDS011;48506;48.202;16.274;2022-09-27T17:18:45;1.85;;;0.70;;
49123;SDS011;48506;48.202;16.274;2022-09-27T17:21:12;1.25;;;0.45;;
49123;SDS011;48506;48.202;16.274;2022-09-27T17:23:39;0.38;;;0.30;;
49123;SDS011;48506;48.202;16.274;2022-09-27T17:26:08;2.20;;;0.73;;
49123;SDS011;48506;48.202;16.274;2022-09-27T17:28:44;0.70;;;0.40;;
49123;SDS011;48506;48.202;16.274;2022-09-27T17:31:11;0.50;;;0.40;;
49123;SDS011;48506;48.202;16.274;2022-09-27T17:33:45;1.83;;;0.33;;
49123;SDS011;48506;48.202;16.274;2022-09-27T17:36:14;0.95;;;0.40;;
49123;SDS011;48506;48.202;16.274;2022-09-27T17:38:42;0.90;;;0.35;;
49123;SDS011;48506;48.202;16.274;2022-09-27T17:41:10;0.38;;;0.22;;
49123;SDS011;48506;48.202;16.274;2022-09-27T17:43:39;0.52;;;0.40;;
49123;SDS011;48506;48.202;16.274;2022-09-27T17:46:15;1.38;;;0.40;;
49123;SDS011;48506;48.202;16.274;2022-09-27T17:48:43;1.10;;;0.40;;
49123;SDS011;48506;48.202;16.274;2022-09-27T17:51:28;0.95;;;0.63;;
49123;SDS011;48506;48.202;16.274;2022-09-27T17:53:54;1.58;;;0.52;;
49123;SDS011;48506;48.202;16.274;2022-09-27T17:56:21;1.52;;;0.60;;
49123;SDS011;48506;48.202;16.274;2022-09-27T17:58:54;1.10;;;0.50;;
49123;SDS011;48506;48.202;16.274;2022-09-27T18:01:21;0.45;;;0.35;;
49123;SDS011;48506;48.202;16.274;2022-09-27T18:03:52;0.65;;;0.45;;
49123;SDS011;48506;48.202;16.274;2022-09-27T18:06:21;0.90;;;0.60;;